createdAt,value
2022-10-20T00:00:49.550Z,7.44
2022-10-20T00:02:20.844Z,7.74
2022-10-20T00:03:52.172Z,7.47
2022-10-20T00:05:23.459Z,7.36
2022-10-20T00:06:55.146Z,7.35
2022-10-20T00:08:26.790Z,7.48
2022-10-20T00:10:03.395Z,7.42
2022-10-20T00:11:34.747Z,7.44
2022-10-20T00:13:06.150Z,8.10
2022-10-20T00:14:37.443Z,7.57
2022-10-20T00:16:08.633Z,7.32
2022-10-20T00:17:40.244Z,7.70
2022-10-20T00:19:11.630Z,7.39
2022-10-20T00:20:42.908Z,7.73
2022-10-20T00:22:14.458Z,7.98
2022-10-20T00:23:45.885Z,8.22
2022-10-20T00:25:17.367Z,8.09
2022-10-20T00:26:49.177Z,7.78
2022-10-20T00:28:20.761Z,8.33
2022-10-20T00:29:52.395Z,7.89
2022-10-20T00:31:24.029Z,8.24
2022-10-20T00:32:55.483Z,8.20
2022-10-20T00:34:26.790Z,8.47
2022-10-20T00:35:58.155Z,8.50
2022-10-20T00:37:29.554Z,8.26
2022-10-20T00:39:00.734Z,8.09
2022-10-20T00:40:32.166Z,8.13
2022-10-20T00:42:03.394Z,8.18
2022-10-20T00:43:34.759Z,7.87
2022-10-20T00:45:06.101Z,8.02
2022-10-20T00:46:37.320Z,7.81
2022-10-20T00:48:08.750Z,7.69
2022-10-20T00:49:40.135Z,7.42
2022-10-20T00:51:11.695Z,7.91
2022-10-20T00:52:43.025Z,7.84
2022-10-20T00:54:15.284Z,7.80
2022-10-20T00:55:46.936Z,7.80
2022-10-20T00:57:18.404Z,8.07
2022-10-20T00:58:49.698Z,7.85
2022-10-20T01:00:21.195Z,8.10
2022-10-20T01:01:52.718Z,8.26
2022-10-20T01:03:24.351Z,8.33
2022-10-20T01:04:55.968Z,8.16
2022-10-20T01:06:27.324Z,8.47
2022-10-20T01:07:59.481Z,8.36
2022-10-20T01:09:31.118Z,8.70
2022-10-20T01:11:02.477Z,8.35
2022-10-20T01:12:33.775Z,8.63
2022-10-20T01:14:05.332Z,8.94
2022-10-20T01:15:36.658Z,8.85
2022-10-20T01:17:08.281Z,8.80
2022-10-20T01:18:39.946Z,9.01
2022-10-20T01:20:11.307Z,9.14
2022-10-20T01:21:42.747Z,8.93
2022-10-20T01:23:14.089Z,8.64
2022-10-20T01:24:45.729Z,9.39
2022-10-20T01:26:17.002Z,9.36
2022-10-20T01:27:48.356Z,9.10
2022-10-20T01:29:19.844Z,9.19
2022-10-20T01:30:51.250Z,8.96
2022-10-20T01:32:22.617Z,8.92
2022-10-20T01:33:54.118Z,9.57
2022-10-20T01:35:25.628Z,8.96
2022-10-20T01:36:57.007Z,9.24
2022-10-20T01:38:28.518Z,9.27
2022-10-20T01:39:59.889Z,9.20
2022-10-20T01:41:31.376Z,9.51
2022-10-20T01:43:03.014Z,9.40
2022-10-20T01:44:35.213Z,9.56
2022-10-20T01:46:06.879Z,9.58
2022-10-20T01:47:38.789Z,9.37
2022-10-20T01:49:10.584Z,9.29
2022-10-20T01:50:42.250Z,9.02
2022-10-20T01:52:13.473Z,9.19
2022-10-20T01:53:44.782Z,8.91
2022-10-20T01:55:16.162Z,8.68
2022-10-20T01:56:47.763Z,8.85
2022-10-20T01:58:19.229Z,9.25
2022-10-20T01:59:50.700Z,9.11
2022-10-20T02:01:22.110Z,9.00
2022-10-20T02:02:53.403Z,9.17
2022-10-20T02:04:24.780Z,9.44
2022-10-20T02:05:56.329Z,8.86
2022-10-20T02:07:27.669Z,9.11
2022-10-20T02:08:59.176Z,8.80
2022-10-20T02:10:30.785Z,8.68
2022-10-20T02:12:02.261Z,9.03
2022-10-20T02:13:33.969Z,9.16
2022-10-20T02:15:05.778Z,8.88
2022-10-20T02:16:37.308Z,8.64
2022-10-20T02:18:08.665Z,8.58
2022-10-20T02:19:39.967Z,8.67
2022-10-20T02:21:11.207Z,8.50
2022-10-20T02:22:43.020Z,8.52
2022-10-20T02:24:14.252Z,8.65
2022-10-20T02:25:45.523Z,8.51
2022-10-20T02:27:17.088Z,8.89
2022-10-20T02:28:48.602Z,8.85
2022-10-20T02:30:19.942Z,8.83
2022-10-20T02:31:51.592Z,8.81
2022-10-20T02:33:22.899Z,9.07
2022-10-20T02:34:54.250Z,8.83
2022-10-20T02:36:25.736Z,8.74
2022-10-20T02:37:57.300Z,8.71
2022-10-20T02:39:34.105Z,8.99
2022-10-20T02:41:05.589Z,8.88
2022-10-20T02:42:36.923Z,8.69
2022-10-20T02:44:08.252Z,8.77
2022-10-20T02:45:39.537Z,8.66
2022-10-20T02:47:10.909Z,8.65
2022-10-20T02:48:42.480Z,8.73
2022-10-20T02:50:13.641Z,8.56
2022-10-20T02:51:45.073Z,8.48
2022-10-20T02:53:16.847Z,8.48
2022-10-20T02:54:48.544Z,8.06
2022-10-20T02:56:20.182Z,8.63
2022-10-20T02:57:51.587Z,8.17
2022-10-20T02:59:23.288Z,8.12
2022-10-20T03:00:54.736Z,8.39
2022-10-20T03:02:26.630Z,8.02
2022-10-20T03:03:57.995Z,8.88
2022-10-20T03:05:29.378Z,8.48
2022-10-20T03:07:00.983Z,8.52
2022-10-20T03:08:32.376Z,8.38
2022-10-20T03:10:03.703Z,8.53
2022-10-20T03:11:35.410Z,8.61
2022-10-20T03:13:06.667Z,8.78
2022-10-20T03:14:37.882Z,8.45
2022-10-20T03:16:09.445Z,8.52
2022-10-20T03:17:41.761Z,8.72
2022-10-20T03:19:13.003Z,8.77
2022-10-20T03:20:44.634Z,8.88
2022-10-20T03:22:16.109Z,9.10
2022-10-20T03:23:47.566Z,9.12
2022-10-20T03:25:18.989Z,8.80
2022-10-20T03:26:50.803Z,8.72
2022-10-20T03:28:22.070Z,8.83
2022-10-20T03:29:53.757Z,8.65
2022-10-20T03:31:24.994Z,8.43
2022-10-20T03:32:56.849Z,8.79
2022-10-20T03:34:28.346Z,9.06
2022-10-20T03:35:59.733Z,8.41
2022-10-20T03:37:31.381Z,9.41
2022-10-20T03:39:02.867Z,9.17
2022-10-20T03:40:34.365Z,9.20
2022-10-20T03:42:05.682Z,8.93
2022-10-20T03:43:36.898Z,9.36
2022-10-20T03:45:08.237Z,9.41
2022-10-20T03:46:39.825Z,8.99
2022-10-20T03:48:11.291Z,9.06
2022-10-20T03:49:42.805Z,9.31
2022-10-20T03:51:14.046Z,8.57
2022-10-20T03:52:45.475Z,8.37
2022-10-20T03:54:16.734Z,8.88
2022-10-20T03:55:48.586Z,8.71
2022-10-20T03:57:38.184Z,8.62
2022-10-20T03:59:09.991Z,8.45
2022-10-20T04:00:41.235Z,8.95
2022-10-20T04:02:12.375Z,8.61
2022-10-20T04:03:43.755Z,8.53
2022-10-20T04:05:15.076Z,9.01
2022-10-20T04:06:46.469Z,8.64
2022-10-20T04:08:17.866Z,8.64
2022-10-20T04:09:49.111Z,8.49
2022-10-20T04:11:25.413Z,8.39
2022-10-20T04:13:07.939Z,8.97
2022-10-20T04:14:40.532Z,8.57
2022-10-20T04:16:11.719Z,8.55
2022-10-20T04:17:43.255Z,8.36
2022-10-20T04:19:19.726Z,8.43
2022-10-20T04:20:51.082Z,8.64
2022-10-20T04:22:28.144Z,9.01
2022-10-20T04:23:59.571Z,8.98
2022-10-20T04:25:31.055Z,9.02
2022-10-20T04:27:02.593Z,9.15
2022-10-20T04:28:33.915Z,8.88
2022-10-20T04:30:05.237Z,8.63
2022-10-20T04:31:36.567Z,8.42
2022-10-20T04:33:08.277Z,7.73
2022-10-20T04:34:39.938Z,8.49
2022-10-20T04:36:16.423Z,8.82
2022-10-20T04:37:47.854Z,8.50
2022-10-20T04:39:19.380Z,8.49
2022-10-20T04:40:50.849Z,8.34
2022-10-20T04:42:22.251Z,8.37
2022-10-20T04:43:53.515Z,8.07
2022-10-20T04:45:25.185Z,8.08
2022-10-20T04:46:56.471Z,7.80
2022-10-20T04:48:27.909Z,7.90
2022-10-20T04:49:59.158Z,8.17
2022-10-20T04:51:30.947Z,8.01
2022-10-20T04:53:02.821Z,7.82
2022-10-20T04:54:34.463Z,7.91
2022-10-20T04:56:05.710Z,8.20
2022-10-20T04:57:39.589Z,8.11
2022-10-20T04:59:13.778Z,7.97
2022-10-20T05:00:45.758Z,8.07
2022-10-20T05:02:17.411Z,8.28
2022-10-20T05:03:48.674Z,7.86
2022-10-20T05:05:19.991Z,8.47
2022-10-20T05:06:51.552Z,8.30
2022-10-20T05:08:22.921Z,8.40
2022-10-20T05:09:54.311Z,8.12
2022-10-20T05:11:25.900Z,7.99
2022-10-20T05:12:57.964Z,8.07
2022-10-20T05:14:39.450Z,8.65
2022-10-20T05:16:34.598Z,8.40
2022-10-20T05:18:06.370Z,8.82
2022-10-20T05:19:37.720Z,8.48
2022-10-20T05:21:10.091Z,8.60
2022-10-20T05:22:41.686Z,8.43
2022-10-20T05:24:20.888Z,8.36
2022-10-20T05:25:53.571Z,7.96
2022-10-20T05:27:25.279Z,8.56
2022-10-20T05:28:56.849Z,8.53
2022-10-20T05:30:28.547Z,8.66
2022-10-20T05:32:00.121Z,8.08
2022-10-20T05:33:31.469Z,8.28
2022-10-20T05:35:02.944Z,8.61
2022-10-20T05:36:34.658Z,8.55
2022-10-20T05:38:06.073Z,7.88
2022-10-20T05:39:37.539Z,8.31
2022-10-20T05:41:08.976Z,8.07
2022-10-20T05:42:40.671Z,8.55
2022-10-20T05:44:12.013Z,8.55
2022-10-20T05:45:43.611Z,8.40
2022-10-20T05:47:35.125Z,9.09
2022-10-20T05:49:06.972Z,8.66
2022-10-20T05:50:38.882Z,8.96
2022-10-20T05:52:10.817Z,8.72
2022-10-20T05:53:42.419Z,8.71
2022-10-20T05:55:13.963Z,8.67
2022-10-20T05:56:45.610Z,8.96
2022-10-20T05:58:18.577Z,8.67
2022-10-20T05:59:53.474Z,8.53
2022-10-20T06:01:25.380Z,8.60
2022-10-20T06:03:06.839Z,8.36
2022-10-20T06:04:38.265Z,7.90
2022-10-20T06:06:09.451Z,8.29
2022-10-20T06:07:40.800Z,8.95
2022-10-20T06:09:12.615Z,8.51
2022-10-20T06:10:44.088Z,8.56
2022-10-20T06:12:15.472Z,8.99
2022-10-20T06:13:51.715Z,8.44
2022-10-20T06:15:24.839Z,9.07
2022-10-20T06:16:56.562Z,8.93
2022-10-20T06:18:28.296Z,8.88
2022-10-20T06:19:59.960Z,8.94
2022-10-20T06:21:31.423Z,8.84
2022-10-20T06:23:03.092Z,8.83
2022-10-20T06:24:34.297Z,8.70
2022-10-20T06:26:06.223Z,8.70
2022-10-20T06:27:37.852Z,8.75
2022-10-20T06:29:09.188Z,8.69
2022-10-20T06:30:40.922Z,8.88
2022-10-20T06:33:43.914Z,8.31
2022-10-20T06:35:15.577Z,9.07
2022-10-20T06:36:46.930Z,9.28
2022-10-20T06:38:18.219Z,9.16
2022-10-20T06:39:49.591Z,9.24
2022-10-20T06:41:21.328Z,9.09
2022-10-20T06:42:52.725Z,9.06
2022-10-20T06:44:24.002Z,8.89
2022-10-20T06:45:55.673Z,8.76
2022-10-20T06:47:26.917Z,9.07
2022-10-20T06:48:59.013Z,8.58
2022-10-20T06:50:30.968Z,9.30
2022-10-20T06:52:02.368Z,8.61
2022-10-20T06:53:33.853Z,8.21
2022-10-20T06:55:05.428Z,8.52
2022-10-20T06:56:36.834Z,8.35
2022-10-20T06:58:08.124Z,8.70
2022-10-20T06:59:39.521Z,8.90
2022-10-20T07:01:11.284Z,8.89
2022-10-20T07:02:42.645Z,8.70
2022-10-20T07:04:14.001Z,8.93
2022-10-20T07:05:45.598Z,8.96
2022-10-20T07:07:17.618Z,7.86
2022-10-20T07:08:48.992Z,8.43
2022-10-20T07:10:20.431Z,8.70
2022-10-20T07:11:52.497Z,9.38
2022-10-20T07:13:23.753Z,9.52
2022-10-20T07:14:55.141Z,10.82
2022-10-20T07:16:26.457Z,8.68
2022-10-20T07:17:58.027Z,8.22
2022-10-20T07:19:29.658Z,8.09
2022-10-20T07:21:01.106Z,7.75
2022-10-20T07:22:32.638Z,7.41
2022-10-20T07:24:04.124Z,7.48
2022-10-20T07:25:35.698Z,7.66
2022-10-20T07:27:06.933Z,7.16
2022-10-20T07:28:38.266Z,6.55
2022-10-20T07:30:09.669Z,6.87
2022-10-20T07:31:41.084Z,7.48
2022-10-20T07:33:12.721Z,6.52
2022-10-20T07:34:44.186Z,6.40
2022-10-20T07:36:15.528Z,6.76
2022-10-20T07:37:47.368Z,7.03
2022-10-20T07:39:19.000Z,6.14
2022-10-20T07:40:50.813Z,6.06
2022-10-20T07:42:22.055Z,5.48
2022-10-20T07:43:53.421Z,6.10
2022-10-20T07:45:24.766Z,6.09
2022-10-20T07:47:16.253Z,5.80
2022-10-20T07:48:48.109Z,5.82
2022-10-20T07:50:19.352Z,5.90
2022-10-20T07:51:50.803Z,6.02
2022-10-20T07:53:22.175Z,5.56
2022-10-20T07:55:02.496Z,5.46
2022-10-20T07:56:49.137Z,5.47
2022-10-20T07:58:20.491Z,5.49
2022-10-20T07:59:52.037Z,5.28
2022-10-20T08:01:23.656Z,5.34
2022-10-20T08:02:55.268Z,5.98
2022-10-20T08:04:26.713Z,5.13
2022-10-20T08:05:58.159Z,5.56
2022-10-20T08:07:29.427Z,5.18
2022-10-20T08:09:01.046Z,5.34
2022-10-20T08:10:32.745Z,4.99
2022-10-20T08:12:04.087Z,5.33
2022-10-20T08:13:36.577Z,5.41
2022-10-20T08:15:08.426Z,5.06
2022-10-20T08:16:40.112Z,5.57
2022-10-20T08:18:12.423Z,5.33
2022-10-20T08:19:43.738Z,5.26
2022-10-20T08:21:15.505Z,5.18
2022-10-20T08:22:46.845Z,4.97
2022-10-20T08:24:18.225Z,5.33
2022-10-20T08:25:49.790Z,4.97
2022-10-20T08:27:21.389Z,5.13
2022-10-20T08:28:54.478Z,4.82
2022-10-20T08:30:25.921Z,5.11
2022-10-20T08:31:57.283Z,4.72
2022-10-20T08:33:28.865Z,5.35
2022-10-20T08:35:00.443Z,5.23
2022-10-20T08:36:31.994Z,4.97
2022-10-20T08:38:03.445Z,5.15
2022-10-20T08:39:34.919Z,5.10
2022-10-20T08:41:06.722Z,5.28
2022-10-20T08:42:38.628Z,5.14
2022-10-20T08:44:10.322Z,5.27
2022-10-20T08:45:41.985Z,5.44
2022-10-20T08:47:13.428Z,5.00
2022-10-20T08:48:44.921Z,5.30
2022-10-20T08:50:16.571Z,5.30
2022-10-20T08:51:48.337Z,5.16
2022-10-20T08:53:19.842Z,5.05
2022-10-20T08:54:51.323Z,4.91
2022-10-20T08:56:22.808Z,5.31
2022-10-20T08:57:54.414Z,5.20
2022-10-20T08:59:25.799Z,5.31
2022-10-20T09:01:12.301Z,5.41
2022-10-20T09:02:43.766Z,5.31
2022-10-20T09:04:15.366Z,5.17
2022-10-20T09:05:51.980Z,4.87
2022-10-20T09:07:23.455Z,5.27
2022-10-20T09:08:55.310Z,5.60
2022-10-20T09:10:26.638Z,6.71
2022-10-20T09:11:58.143Z,6.16
2022-10-20T09:13:39.794Z,4.97
2022-10-20T09:15:21.735Z,5.02
2022-10-20T09:17:00.402Z,4.94
2022-10-20T09:18:32.264Z,4.86
2022-10-20T09:20:03.678Z,4.78
2022-10-20T09:21:35.501Z,4.71
2022-10-20T09:23:16.614Z,4.63
2022-10-20T09:24:53.832Z,4.55
2022-10-20T09:26:44.941Z,4.42
2022-10-20T09:28:25.014Z,4.97
2022-10-20T09:29:56.421Z,4.78
2022-10-20T09:31:28.046Z,4.73
2022-10-20T09:33:00.041Z,4.60
2022-10-20T09:34:31.729Z,4.71
2022-10-20T09:36:03.348Z,5.20
2022-10-20T09:37:35.135Z,4.74
2022-10-20T09:39:06.764Z,5.01
2022-10-20T09:40:39.999Z,4.64
2022-10-20T09:42:11.902Z,4.68
2022-10-20T09:43:48.382Z,5.08
2022-10-20T09:45:25.145Z,4.76
2022-10-20T09:47:02.059Z,4.70
2022-10-20T09:48:33.587Z,4.89
2022-10-20T09:50:05.174Z,4.71
2022-10-20T09:51:41.764Z,4.70
2022-10-20T09:53:14.217Z,4.49
2022-10-20T09:54:50.664Z,4.98
2022-10-20T09:56:22.043Z,4.68
2022-10-20T09:57:53.723Z,4.93
2022-10-20T09:59:25.103Z,4.53
2022-10-20T10:00:56.680Z,4.42
2022-10-20T10:02:28.562Z,4.60
2022-10-20T10:03:59.959Z,4.65
2022-10-20T10:05:31.682Z,4.58
2022-10-20T10:07:03.173Z,4.57
2022-10-20T10:08:34.956Z,4.71
2022-10-20T10:10:08.455Z,5.11
2022-10-20T10:11:40.746Z,4.99
2022-10-20T10:13:12.238Z,4.94
2022-10-20T10:14:43.676Z,4.82
2022-10-20T10:16:15.317Z,4.88
2022-10-20T10:17:46.827Z,5.03
2022-10-20T10:19:18.332Z,4.88
2022-10-20T10:20:50.371Z,4.52
2022-10-20T10:22:26.822Z,4.69
2022-10-20T10:24:08.636Z,4.40
2022-10-20T10:25:40.022Z,4.36
2022-10-20T10:27:11.917Z,4.62
2022-10-20T10:29:05.982Z,4.56
2022-10-20T10:30:40.721Z,4.44
2022-10-20T10:32:12.810Z,4.51
2022-10-20T10:33:44.228Z,4.37
2022-10-20T10:35:15.675Z,4.45
2022-10-20T10:36:47.214Z,5.74
2022-10-20T10:38:18.746Z,6.99
2022-10-20T10:39:50.495Z,7.43
2022-10-20T10:41:22.082Z,9.03
2022-10-20T10:42:53.424Z,5.23
2022-10-20T10:44:24.863Z,5.09
2022-10-20T10:45:56.417Z,4.99
2022-10-20T10:47:28.060Z,4.73
2022-10-20T10:49:09.764Z,4.90
2022-10-20T10:50:41.183Z,4.80
2022-10-20T10:52:12.499Z,4.54
2022-10-20T10:53:44.274Z,4.58
2022-10-20T10:55:30.610Z,4.39
2022-10-20T10:57:13.889Z,4.38
2022-10-20T10:58:45.771Z,4.45
2022-10-20T11:00:17.081Z,4.66
2022-10-20T11:01:49.344Z,4.77
2022-10-20T11:03:21.189Z,4.68
2022-10-20T11:04:52.726Z,4.57
2022-10-20T11:06:24.425Z,5.08
2022-10-20T11:07:56.000Z,4.81
2022-10-20T11:09:28.048Z,4.95
2022-10-20T11:10:59.740Z,5.43
2022-10-20T11:12:31.320Z,4.98
2022-10-20T11:14:02.835Z,5.13
2022-10-20T11:15:34.578Z,4.96
2022-10-20T11:17:06.209Z,5.06
2022-10-20T11:18:38.852Z,4.97
2022-10-20T11:20:10.743Z,5.17
2022-10-20T11:21:42.385Z,5.28
2022-10-20T11:23:14.156Z,5.13
2022-10-20T11:24:45.511Z,5.49
2022-10-20T11:26:24.230Z,5.50
2022-10-20T11:27:58.260Z,5.23
2022-10-20T11:29:29.746Z,5.65
2022-10-20T11:31:02.252Z,6.04
2022-10-20T11:34:11.083Z,5.49
2022-10-20T11:35:42.441Z,5.57
2022-10-20T11:37:13.935Z,5.75
2022-10-20T11:38:45.832Z,5.67
2022-10-20T11:40:17.464Z,5.47
2022-10-20T11:41:49.300Z,5.73
2022-10-20T11:43:20.829Z,5.83
2022-10-20T11:44:52.342Z,6.08
2022-10-20T11:46:23.745Z,6.32
2022-10-20T11:47:55.057Z,6.06
2022-10-20T11:49:26.349Z,6.21
2022-10-20T11:50:57.793Z,5.91
2022-10-20T11:52:29.460Z,6.06
2022-10-20T11:54:01.764Z,5.98
2022-10-20T11:55:33.340Z,5.92
2022-10-20T11:57:04.923Z,5.70
2022-10-20T11:58:36.360Z,5.52
2022-10-20T12:00:07.987Z,5.94
2022-10-20T12:02:02.597Z,5.41
2022-10-20T12:03:35.404Z,6.11
2022-10-20T12:05:06.799Z,5.84
2022-10-20T12:06:38.986Z,5.91
2022-10-20T12:08:28.139Z,5.53
2022-10-20T12:10:01.561Z,5.84
2022-10-20T12:11:33.066Z,5.73
2022-10-20T12:13:04.742Z,6.18
2022-10-20T12:14:36.078Z,5.93
2022-10-20T12:16:07.712Z,5.94
2022-10-20T12:17:39.562Z,5.97
2022-10-20T12:19:11.277Z,5.81
2022-10-20T12:20:42.777Z,5.74
2022-10-20T12:22:14.115Z,6.23
2022-10-20T12:23:45.741Z,6.56
2022-10-20T12:25:17.320Z,6.11
2022-10-20T12:26:49.259Z,6.10
2022-10-20T12:28:20.876Z,6.00
2022-10-20T12:29:52.365Z,6.06
2022-10-20T12:31:23.781Z,6.40
2022-10-20T12:32:55.464Z,9.81
2022-10-20T12:34:26.801Z,7.65
2022-10-20T12:35:58.504Z,7.08
2022-10-20T12:37:30.023Z,6.74
2022-10-20T12:39:01.629Z,6.58
2022-10-20T12:40:33.252Z,6.73
2022-10-20T12:42:04.813Z,6.66
2022-10-20T12:43:36.327Z,6.69
2022-10-20T12:45:08.114Z,6.70
2022-10-20T12:46:39.633Z,6.52
2022-10-20T12:48:11.373Z,6.51
2022-10-20T12:49:43.052Z,6.98
2022-10-20T12:51:14.914Z,7.05
2022-10-20T12:52:46.413Z,7.53
2022-10-20T12:54:17.734Z,7.40
2022-10-20T12:55:49.236Z,6.95
2022-10-20T12:57:20.776Z,7.09
2022-10-20T12:58:52.392Z,7.20
2022-10-20T13:00:23.904Z,7.38
2022-10-20T13:01:55.399Z,7.51
2022-10-20T13:03:27.030Z,8.16
2022-10-20T13:04:58.491Z,7.55
2022-10-20T13:06:30.126Z,7.20
2022-10-20T13:08:01.588Z,7.67
2022-10-20T13:09:32.904Z,7.66
2022-10-20T13:11:04.293Z,7.86
2022-10-20T13:12:35.921Z,8.19
2022-10-20T13:14:07.909Z,7.87
2022-10-20T13:15:39.425Z,7.97
2022-10-20T13:17:11.150Z,8.11
2022-10-20T13:18:42.998Z,8.22
2022-10-20T13:20:14.502Z,7.99
2022-10-20T13:21:49.464Z,8.13
2022-10-20T13:23:21.301Z,8.19
2022-10-20T13:24:56.003Z,7.97
2022-10-20T13:26:28.303Z,8.38
2022-10-20T13:27:59.679Z,8.28
2022-10-20T13:29:31.184Z,8.28
2022-10-20T13:31:02.561Z,8.24
2022-10-20T13:32:34.223Z,7.99
2022-10-20T13:34:06.489Z,8.38
2022-10-20T13:35:38.165Z,8.55
2022-10-20T13:37:09.534Z,8.50
2022-10-20T13:38:41.251Z,8.48
2022-10-20T13:40:12.871Z,8.36
2022-10-20T13:41:45.857Z,8.24
2022-10-20T13:43:19.435Z,8.47
2022-10-20T13:44:51.030Z,7.77
2022-10-20T13:46:22.498Z,7.87
2022-10-20T13:47:53.997Z,8.31
2022-10-20T13:49:25.888Z,8.27
2022-10-20T13:50:57.563Z,7.76
2022-10-20T13:52:28.877Z,8.46
2022-10-20T13:54:05.800Z,7.99
2022-10-20T13:55:37.345Z,8.58
2022-10-20T13:57:09.446Z,8.17
2022-10-20T13:58:41.158Z,7.96
2022-10-20T14:00:12.521Z,8.28
2022-10-20T14:01:43.971Z,7.84
2022-10-20T14:03:15.431Z,7.65
2022-10-20T14:04:47.012Z,7.64
2022-10-20T14:06:23.498Z,7.90
2022-10-20T14:07:54.919Z,7.64
2022-10-20T14:09:27.802Z,7.48
2022-10-20T14:10:59.329Z,7.96
2022-10-20T14:12:36.159Z,7.76
2022-10-20T14:14:08.006Z,7.56
2022-10-20T14:16:02.862Z,7.24
2022-10-20T14:17:38.524Z,7.14
2022-10-20T14:19:11.996Z,7.59
2022-10-20T14:20:43.622Z,7.76
2022-10-20T14:22:15.309Z,7.70
2022-10-20T14:23:46.729Z,7.77
2022-10-20T14:25:18.472Z,7.47
2022-10-20T14:26:50.341Z,6.97
2022-10-20T14:28:22.475Z,7.94
2022-10-20T14:29:54.100Z,7.58
2022-10-20T14:31:26.008Z,7.75
2022-10-20T14:32:57.431Z,8.40
2022-10-20T14:34:28.752Z,7.89
2022-10-20T14:36:00.388Z,7.75
2022-10-20T14:37:31.980Z,8.19
2022-10-20T14:39:03.321Z,7.56
2022-10-20T14:40:45.857Z,7.61
2022-10-20T14:42:17.545Z,7.60
2022-10-20T14:43:55.480Z,7.13
2022-10-20T14:45:27.202Z,7.36
2022-10-20T14:46:58.844Z,7.15
2022-10-20T14:48:31.571Z,7.04
2022-10-20T14:50:03.142Z,6.77
2022-10-20T14:51:34.762Z,6.87
2022-10-20T14:53:11.215Z,6.60
2022-10-20T14:54:42.872Z,6.86
2022-10-20T14:56:17.249Z,6.81
2022-10-20T14:57:55.002Z,6.73
2022-10-20T14:59:26.381Z,6.37
2022-10-20T15:00:58.155Z,6.26
2022-10-20T15:02:29.709Z,6.32
2022-10-20T15:04:01.484Z,6.57
2022-10-20T15:05:33.070Z,6.95
2022-10-20T15:07:04.507Z,7.04
2022-10-20T15:08:36.029Z,7.27
2022-10-20T15:10:08.152Z,6.61
2022-10-20T15:11:39.844Z,6.12
2022-10-20T15:13:12.593Z,6.24
2022-10-20T15:14:54.238Z,6.25
2022-10-20T15:16:25.733Z,5.66
2022-10-20T15:17:57.278Z,6.19
2022-10-20T15:19:28.744Z,5.90
2022-10-20T15:21:00.235Z,5.53
2022-10-20T15:22:31.851Z,5.10
2022-10-20T15:24:03.278Z,5.97
2022-10-20T15:25:34.778Z,5.92
2022-10-20T15:27:06.116Z,5.74
2022-10-20T15:28:37.611Z,5.93
2022-10-20T15:30:09.153Z,5.77
2022-10-20T15:31:40.515Z,6.19
2022-10-20T15:33:12.172Z,6.30
2022-10-20T15:34:43.666Z,6.51
2022-10-20T15:36:15.356Z,6.73
2022-10-20T15:37:49.973Z,6.75
2022-10-20T15:39:21.901Z,7.20
2022-10-20T15:40:53.674Z,7.21
2022-10-20T15:42:25.500Z,7.30
2022-10-20T15:43:57.340Z,7.14
2022-10-20T15:45:28.984Z,7.04
2022-10-20T15:47:00.813Z,6.89
2022-10-20T15:48:32.234Z,7.53
2022-10-20T15:50:04.488Z,7.84
2022-10-20T15:52:07.273Z,7.80
2022-10-20T15:53:49.185Z,7.99
2022-10-20T15:55:26.474Z,8.50
2022-10-20T15:57:39.247Z,7.65
2022-10-20T15:59:21.020Z,7.09
2022-10-20T16:00:57.745Z,7.45
2022-10-20T16:02:55.653Z,7.21
2022-10-20T16:04:28.197Z,6.77
2022-10-20T16:06:00.121Z,6.92
2022-10-20T16:07:43.957Z,6.99
2022-10-20T16:09:34.247Z,7.39
2022-10-20T16:11:11.074Z,7.11
2022-10-20T16:12:42.615Z,6.84
2022-10-20T16:14:23.854Z,6.82
2022-10-20T16:15:55.548Z,6.86
2022-10-20T16:17:27.661Z,6.94
2022-10-20T16:19:04.284Z,6.97
2022-10-20T16:20:35.979Z,7.00
2022-10-20T16:22:23.938Z,7.12
2022-10-20T16:24:15.763Z,6.88
2022-10-20T16:25:52.255Z,6.92
2022-10-20T16:27:24.493Z,7.70
2022-10-20T16:28:56.282Z,7.79
2022-10-20T16:30:37.710Z,7.74
2022-10-20T16:32:19.717Z,6.74
2022-10-20T16:33:51.390Z,7.00
2022-10-20T16:35:23.321Z,6.63
2022-10-20T16:37:09.915Z,6.99
2022-10-20T16:38:41.550Z,7.09
2022-10-20T16:40:13.155Z,7.15
2022-10-20T16:41:57.700Z,7.07
2022-10-20T16:43:39.518Z,6.95
2022-10-20T16:45:16.404Z,7.38
2022-10-20T16:46:48.223Z,7.34
2022-10-20T16:48:24.631Z,7.18
2022-10-20T16:50:31.639Z,7.03
2022-10-20T16:52:03.426Z,7.23
2022-10-20T16:54:07.249Z,7.79
2022-10-20T16:56:06.403Z,7.56
2022-10-20T16:57:39.180Z,7.52
2022-10-20T16:59:11.263Z,7.99
2022-10-20T17:00:43.381Z,7.69
2022-10-20T17:02:15.192Z,7.53
2022-10-20T17:03:47.742Z,7.77
2022-10-20T17:05:20.676Z,7.52
2022-10-20T17:06:52.390Z,7.38
2022-10-20T17:08:25.599Z,7.80
2022-10-20T17:10:18.364Z,7.67
2022-10-20T17:12:04.963Z,7.61
2022-10-20T17:13:56.538Z,7.68
2022-10-20T17:15:28.455Z,7.59
2022-10-20T17:17:00.056Z,7.26
2022-10-20T17:18:33.275Z,7.55
2022-10-20T17:20:08.069Z,7.53
2022-10-20T17:21:39.873Z,7.46
2022-10-20T17:23:41.645Z,7.68
2022-10-20T17:25:14.600Z,7.36
2022-10-20T17:26:46.360Z,7.63
2022-10-20T17:28:18.204Z,7.35
2022-10-20T17:29:49.682Z,7.19
2022-10-20T17:31:31.773Z,7.56
2022-10-20T17:33:03.649Z,7.45
2022-10-20T17:34:46.124Z,7.01
2022-10-20T17:36:18.371Z,7.28
2022-10-20T17:37:50.678Z,7.33
2022-10-20T17:39:33.084Z,7.43
2022-10-20T17:41:08.968Z,7.11
2022-10-20T17:42:40.653Z,7.12
2022-10-20T17:44:27.089Z,7.68
2022-10-20T17:46:06.973Z,7.24
2022-10-20T17:47:38.629Z,7.15
2022-10-20T17:49:10.765Z,7.07
2022-10-20T17:50:42.596Z,7.33
2022-10-20T17:52:19.139Z,7.78
2022-10-20T17:53:51.436Z,7.20
2022-10-20T17:55:59.150Z,7.39
2022-10-20T17:57:52.861Z,7.18
2022-10-20T17:59:25.667Z,7.21
2022-10-20T18:01:02.931Z,7.14
2022-10-20T18:02:59.847Z,7.31
2022-10-20T18:05:05.193Z,6.87
2022-10-20T18:06:46.734Z,7.29
2022-10-20T18:08:33.469Z,7.03
2022-10-20T18:10:15.508Z,8.67
2022-10-20T18:12:12.482Z,7.44
2022-10-20T18:14:05.827Z,7.40
2022-10-20T18:15:39.807Z,7.12
2022-10-20T18:17:46.581Z,7.18
2022-10-20T18:19:33.106Z,7.54
2022-10-20T18:21:19.366Z,7.27
2022-10-20T18:23:09.554Z,6.93
2022-10-20T18:24:42.755Z,7.17
2022-10-20T18:26:37.530Z,7.05
2022-10-20T18:28:14.523Z,7.22
2022-10-20T18:29:51.250Z,7.02
2022-10-20T18:31:27.753Z,6.90
2022-10-20T18:33:15.170Z,6.62
2022-10-20T18:34:51.592Z,6.97
2022-10-20T18:36:49.129Z,7.33
2022-10-20T18:38:20.734Z,6.83
2022-10-20T18:39:52.419Z,6.99
2022-10-20T18:41:23.960Z,7.00
2022-10-20T18:43:19.419Z,6.77
2022-10-20T18:45:15.783Z,6.78
2022-10-20T18:46:47.633Z,6.84
2022-10-20T18:48:30.645Z,6.90
2022-10-20T18:50:02.400Z,6.59
2022-10-20T18:51:39.017Z,7.01
2022-10-20T18:53:10.782Z,6.49
2022-10-20T18:54:46.528Z,6.94
2022-10-20T18:56:23.276Z,6.87
2022-10-20T18:57:54.876Z,6.85
2022-10-20T18:59:27.534Z,7.15
2022-10-20T19:01:23.550Z,7.33
2022-10-20T19:02:57.972Z,6.59
2022-10-20T19:04:32.891Z,7.13
2022-10-20T19:06:04.857Z,6.77
2022-10-20T19:07:37.086Z,6.45
2022-10-20T19:09:08.965Z,6.55
2022-10-20T19:10:41.477Z,7.32
2022-10-20T19:12:14.037Z,6.72
2022-10-20T19:13:55.601Z,6.38
2022-10-20T19:15:37.094Z,6.31
2022-10-20T19:17:31.058Z,7.42
2022-10-20T19:19:06.594Z,6.45
2022-10-20T19:20:38.784Z,9.97
2022-10-20T19:22:10.355Z,10.41
2022-10-20T19:23:46.862Z,8.08
2022-10-20T19:25:19.399Z,6.37
2022-10-20T19:27:21.065Z,6.59
2022-10-20T19:28:58.590Z,6.71
2022-10-20T19:30:42.750Z,7.30
2022-10-20T19:32:14.549Z,6.69
2022-10-20T19:33:47.056Z,12.97
2022-10-20T19:35:37.035Z,8.48
2022-10-20T19:37:16.601Z,7.29
2022-10-20T19:39:03.102Z,8.54
2022-10-20T19:40:50.075Z,8.11
2022-10-20T19:42:22.090Z,7.73
2022-10-20T19:44:08.982Z,6.73
2022-10-20T19:45:40.708Z,6.91
2022-10-20T19:47:34.021Z,7.04
2022-10-20T19:49:18.457Z,6.99
2022-10-20T19:50:55.309Z,7.32
2022-10-20T19:52:27.053Z,7.08
2022-10-20T19:54:29.690Z,6.50
2022-10-20T19:56:01.110Z,6.62
2022-10-20T19:57:38.237Z,6.69
2022-10-20T19:59:28.116Z,6.62
2022-10-20T20:01:22.195Z,6.49
2022-10-20T20:03:19.114Z,6.52
2022-10-20T20:06:48.740Z,6.78
2022-10-20T20:08:21.082Z,6.57
2022-10-20T20:09:59.973Z,6.54
2022-10-20T20:11:35.619Z,6.49
2022-10-20T20:13:07.978Z,6.50
2022-10-20T20:14:39.334Z,6.35
2022-10-20T20:16:31.139Z,6.48
2022-10-20T20:18:22.775Z,6.53
2022-10-20T20:20:11.088Z,7.00
2022-10-20T20:22:07.352Z,6.27
2022-10-20T20:23:58.809Z,6.30
2022-10-20T20:25:35.862Z,6.31
2022-10-20T20:27:08.263Z,6.52
2022-10-20T20:29:14.562Z,6.22
2022-10-20T20:31:00.136Z,5.69
2022-10-20T20:32:57.294Z,5.50
2022-10-20T20:34:28.862Z,5.66
2022-10-20T20:36:29.752Z,5.42
2022-10-20T20:38:13.613Z,5.57
2022-10-20T20:39:45.140Z,5.19
2022-10-20T20:41:16.724Z,6.44
2022-10-20T20:42:48.138Z,5.42
2022-10-20T20:44:19.587Z,5.02
2022-10-20T20:45:51.090Z,4.80
2022-10-20T20:47:46.462Z,4.09
2022-10-20T20:49:18.460Z,4.37
2022-10-20T20:50:50.375Z,4.33
2022-10-20T20:52:22.314Z,4.13
2022-10-20T20:53:53.687Z,4.46
2022-10-20T20:55:40.290Z,3.89
2022-10-20T20:57:11.718Z,3.94
2022-10-20T20:58:56.445Z,3.83
2022-10-20T21:00:28.118Z,3.94